Time;durP1;ratioP1;P1;durP2;ratioP2;P2;SDS_P1;SDS_P2;PMS_P1;PMS_P2;Temp;Humidity;BMP_temperature;BMP_pressure;BME280_temperature;BME280_humidity;BME280_pressure;Samples;Min_cycle;Max_cycle;Signal;HPM_P1;HPM_P2
2021/12/12 00:00:46;;;;;;;43.70;41.38;;;;;;;20.50;43.46;101845.13;4955707;29;20067;-84
2021/12/12 00:03:20;;;;;;;43.08;40.67;;;;;;;20.46;43.44;101850.38;4947064;29;20044;-88
2021/12/12 00:05:55;;;;;;;43.83;41.33;;;;;;;20.45;43.86;101856.13;4956516;29;20035;-80
2021/12/12 00:08:26;;;;;;;42.30;39.67;;;;;;;20.43;43.75;101861.09;4954645;29;20074;-89
2021/12/12 00:11:05;;;;;;;44.08;41.67;;;;;;;20.42;43.44;101860.28;4956125;29;20460;-87
2021/12/12 00:13:47;;;;;;;44.05;41.75;;;;;;;20.40;43.63;101856.97;4956205;29;20042;-88
2021/12/12 00:16:14;;;;;;;44.85;42.55;;;;;;;20.38;43.29;101848.19;4956345;29;20035;-87
2021/12/12 00:18:40;;;;;;;46.40;43.75;;;;;;;20.37;43.17;101854.81;4938617;29;20111;-89
2021/12/12 00:21:08;;;;;;;47.10;44.15;;;;;;;20.36;43.40;101838.59;4955645;28;20039;-89
2021/12/12 00:23:34;;;;;;;45.40;42.72;;;;;;;20.35;43.33;101840.53;4957290;28;20023;-90
2021/12/12 00:26:00;;;;;;;52.63;49.83;;;;;;;20.34;43.40;101840.84;4942231;29;20380;-89
2021/12/12 00:28:27;;;;;;;51.45;48.75;;;;;;;20.32;43.58;101830.94;4959385;28;20046;-89
2021/12/12 00:30:58;;;;;;;53.08;50.35;;;;;;;20.32;43.46;101830.13;4959137;29;20027;-88
2021/12/12 00:33:24;;;;;;;51.17;48.08;;;;;;;20.30;43.42;101827.66;4959590;29;20027;-89
2021/12/12 00:35:51;;;;;;;48.25;45.53;;;;;;;20.30;43.31;101826.84;4959777;29;20031;-78
2021/12/12 00:38:22;;;;;;;49.83;47.03;;;;;;;20.29;43.36;101831.53;4958913;29;20043;-89
2021/12/12 00:40:52;;;;;;;50.80;48.10;;;;;;;20.28;43.25;101832.59;4960575;29;20074;-87
2021/12/12 00:43:26;;;;;;;48.47;45.72;;;;;;;20.28;43.18;101831.78;4959808;29;20031;-94
2021/12/12 00:45:54;;;;;;;48.53;45.97;;;;;;;20.27;43.33;101827.41;4960422;29;20027;-90
2021/12/12 00:48:21;;;;;;;48.33;45.70;;;;;;;20.25;43.44;101822.19;4957757;28;20047;-84
2021/12/12 00:50:46;;;;;;;49.42;46.72;;;;;;;20.24;43.47;101817.81;4958608;29;20495;-90
2021/12/12 00:53:14;;;;;;;51.13;48.42;;;;;;;20.24;43.03;101823.31;4958362;29;20114;-91
2021/12/12 00:55:41;;;;;;;49.95;47.25;;;;;;;20.23;43.40;101815.34;4968167;29;20483;-91
2021/12/12 00:58:08;;;;;;;49.90;47.13;;;;;;;20.23;43.29;101809.88;4964597;29;20035;-93
2021/12/12 01:00:42;;;;;;;51.27;48.67;;;;;;;20.22;43.29;101809.06;4960439;28;20079;-92
2021/12/12 01:03:09;;;;;;;49.63;47.05;;;;;;;20.22;43.02;101816.47;4959387;29;20047;-89
2021/12/12 01:05:36;;;;;;;48.80;46.38;;;;;;;20.20;43.07;101811.25;4958676;28;20035;-88
2021/12/12 01:08:06;;;;;;;51.75;48.95;;;;;;;20.19;43.21;101806.88;4947163;29;20059;-86
2021/12/12 01:10:36;;;;;;;46.08;43.78;;;;;;;20.19;43.00;101806.88;4980578;29;20099;-88
2021/12/12 01:13:05;;;;;;;47.60;44.88;;;;;;;20.18;43.11;101804.41;4962836;29;20035;-85
2021/12/12 01:15:54;;;;;;;47.15;44.55;;;;;;;20.17;43.21;101797.28;4971314;28;20027;-90
2021/12/12 01:18:29;;;;;;;47.10;44.60;;;;;;;20.16;43.25;101806.59;4952780;29;20078;-90
2021/12/12 01:21:19;;;;;;;50.50;47.67;;;;;;;20.14;42.99;101804.16;4960371;29;20090;-92
2021/12/12 01:23:53;;;;;;;49.08;46.67;;;;;;;20.14;43.08;101800.59;4959766;29;20043;-92
2021/12/12 01:26:19;;;;;;;50.67;47.88;;;;;;;20.13;43.23;101799.75;4959081;29;20371;-89
2021/12/12 01:28:47;;;;;;;48.53;46.10;;;;;;;20.12;43.02;101783.59;4959123;29;20110;-93
2021/12/12 01:31:24;;;;;;;53.97;51.17;;;;;;;20.12;43.16;101789.91;4959249;29;20027;-91
2021/12/12 01:33:58;;;;;;;52.08;49.38;;;;;;;20.11;42.96;101788.28;4959087;28;20028;-92
2021/12/12 01:36:31;;;;;;;52.63;49.83;;;;;;;20.11;43.15;101793.75;4958288;29;20436;-89
2021/12/12 14:03:58;;;;;;;37.13;35.13;;;;;;;19.17;48.06;102015.25;5139056;27;20777;-93
2021/12/12 14:06:27;;;;;;;38.83;36.38;;;;;;;19.23;48.41;102016.94;5139658;27;20141;-96
2021/12/12 14:08:59;;;;;;;41.45;39.17;;;;;;;19.32;48.48;102023.50;5117763;22;20060;-89
2021/12/12 14:11:29;;;;;;;39.25;37.15;;;;;;;19.42;48.49;102022.72;5008993;28;20057;-88
2021/12/12 14:13:59;;;;;;;39.42;37.35;;;;;;;19.49;48.79;102017.81;5027181;28;20095;-90
2021/12/12 14:16:32;;;;;;;40.50;38.40;;;;;;;19.58;48.26;102023.56;5025567;28;20604;-92
2021/12/12 14:19:12;;;;;;;41.00;38.58;;;;;;;19.65;48.05;102037.81;5022068;28;20127;-91
2021/12/12 14:21:40;;;;;;;40.20;38.10;;;;;;;19.71;48.21;102035.97;5022846;28;20037;-90
2021/12/12 14:24:06;;;;;;;41.87;39.50;;;;;;;19.76;47.70;102039.53;5018460;28;20030;-89
2021/12/12 14:26:35;;;;;;;40.40;38.30;;;;;;;19.80;47.76;102040.59;5025282;28;20041;-94
2021/12/12 14:29:02;;;;;;;;;;;;;;;19.82;47.51;102046.63;5027561;28;20571;-95
2021/12/12 14:31:31;;;;;;;39.05;36.95;;;;;;;19.87;47.39;102041.16;5024736;28;20266;-93
2021/12/12 14:34:21;;;;;;;40.47;38.28;;;;;;;19.90;47.36;102050.75;5021783;28;20112;-90
2021/12/12 14:36:51;;;;;;;39.10;37.10;;;;;;;19.94;47.11;102043.63;5024536;28;20520;-90
2021/12/12 14:39:18;;;;;;;39.78;37.78;;;;;;;19.97;46.85;102058.72;5018707;28;20030;-92
2021/12/12 14:41:56;;;;;;;41.10;39.00;;;;;;;20.00;47.18;102058.16;5025385;28;20132;-93
2021/12/12 14:44:28;;;;;;;40.90;38.60;;;;;;;20.01;46.88;102060.66;5025584;28;20026;-93
2021/12/12 14:47:00;;;;;;;40.70;38.40;;;;;;;20.03;46.87;102055.72;5018564;28;20409;-91
2021/12/12 14:49:36;;;;;;;41.22;39.13;;;;;;;20.05;46.35;102064.47;5025421;28;20029;-90
2021/12/12 14:52:14;;;;;;;43.33;40.88;;;;;;;20.08;46.84;102057.59;5018696;28;20073;-94
2021/12/12 14:54:46;;;;;;;41.78;39.47;;;;;;;20.09;46.43;102064.75;5023678;28;20030;-90
2021/12/12 14:57:17;;;;;;;43.83;41.33;;;;;;;20.11;46.52;102068.06;5020521;28;20084;-91
2021/12/12 14:59:46;;;;;;;40.20;38.00;;;;;;;20.13;46.21;102070.50;5025343;28;20034;-94
2021/12/12 15:02:24;;;;;;;42.70;40.30;;;;;;;20.14;46.25;102069.44;5024645;28;20030;-91
2021/12/12 15:05:08;;;;;;;42.00;39.80;;;;;;;20.15;46.28;102062.84;5024878;28;20386;-93
2021/12/12 15:07:37;;;;;;;41.38;39.08;;;;;;;20.16;46.06;102069.94;5023724;28;20053;-93
2021/12/12 15:10:12;;;;;;;43.20;40.90;;;;;;;20.17;46.07;102072.44;5021115;28;20091;-92
2021/12/12 15:12:50;;;;;;;42.13;39.83;;;;;;;20.18;46.09;102071.31;5022768;28;20033;-92
2021/12/12 15:15:18;;;;;;;42.60;40.30;;;;;;;20.19;46.13;102073.00;5007958;28;20061;-93
2021/12/12 15:18:12;;;;;;;42.63;40.33;;;;;;;20.20;46.20;102077.34;5015513;28;20033;-90
2021/12/12 15:20:43;;;;;;;41.28;39.08;;;;;;;20.21;45.72;102072.69;5013119;28;20049;-93
2021/12/12 15:23:18;;;;;;;40.33;38.13;;;;;;;20.22;45.85;102079.84;5010122;28;20505;-93
2021/12/12 15:25:50;;;;;;;42.92;40.65;;;;;;;20.22;46.09;102080.66;5007449;28;20040;-87
2021/12/12 15:28:18;;;;;;;40.40;38.20;;;;;;;20.24;45.76;102078.47;5009945;28;20029;-93
2021/12/12 15:31:00;;;;;;;40.92;38.83;;;;;;;20.25;45.89;102087.50;5013158;28;20029;-94
2021/12/12 15:33:30;;;;;;;41.17;38.85;;;;;;;20.25;45.78;102093.00;5014883;28;20065;-94
2021/12/12 15:35:59;;;;;;;40.10;38.00;;;;;;;20.26;45.76;102095.50;5012983;28;20030;-88
2021/12/12 15:38:28;;;;;;;41.97;39.67;;;;;;;20.27;45.79;102090.81;5012250;28;20490;-90
2021/12/12 15:41:00;;;;;;;41.28;38.78;;;;;;;20.27;45.49;102099.03;5006593;28;20030;-92
2021/12/12 15:43:46;;;;;;;41.92;39.65;;;;;;;20.29;45.65;102099.59;5010632;28;20462;-94
2021/12/12 15:46:16;;;;;;;42.90;40.45;;;;;;;20.29;45.73;102096.84;5012033;28;20032;-92
2021/12/12 15:48:46;;;;;;;43.38;41.08;;;;;;;20.30;45.80;102098.50;5013910;28;20057;-92
2021/12/12 15:51:16;;;;;;;42.08;39.67;;;;;;;20.30;45.38;102098.50;5007798;28;20030;-94
2021/12/12 15:54:13;;;;;;;43.28;40.55;;;;;;;20.30;45.64;102110.28;5011619;28;20106;-91
2021/12/12 15:56:52;;;;;;;43.00;40.60;;;;;;;20.30;45.51;102107.53;5009315;28;20060;-91
2021/12/12 15:59:30;;;;;;;43.30;40.80;;;;;;;20.31;45.45;102108.38;5009952;28;20033;-91
2021/12/12 16:02:09;;;;;;;43.45;40.95;;;;;;;20.31;45.87;102109.19;5007537;28;20037;-91
2021/12/12 16:04:37;;;;;;;43.88;41.47;;;;;;;20.33;45.69;102114.41;5000985;28;20034;-92
2021/12/12 16:07:12;;;;;;;43.55;41.20;;;;;;;20.33;45.69;102108.91;5009405;28;20041;-93
2021/12/12 16:09:41;;;;;;;44.13;41.33;;;;;;;20.35;45.59;102105.91;5010914;28;20081;-92
2021/12/12 16:12:06;;;;;;;;;;;;;;;20.32;45.61;102105.34;5009389;28;20034;-91
2021/12/12 16:14:33;;;;;;;40.92;38.47;;;;;;;20.34;45.10;102107.00;5011636;28;19917;-93
2021/12/12 16:17:01;;;;;;;44.25;41.75;;;;;;;20.34;45.37;102109.75;5009035;28;20042;-90
2021/12/12 16:19:40;;;;;;;42.45;39.75;;;;;;;20.35;45.40;102114.13;4994870;28;20541;-92
2021/12/12 16:22:12;;;;;;;43.67;41.05;;;;;;;20.34;45.53;102116.06;5006627;28;20026;-92
2021/12/12 16:24:43;;;;;;;42.25;39.75;;;;;;;20.36;45.46;102118.50;5009864;28;20489;-87
2021/12/12 16:27:23;;;;;;;42.88;40.17;;;;;;;20.37;45.25;102115.50;5005260;28;20100;-91
2021/12/12 16:29:53;;;;;;;42.65;40.03;;;;;;;20.37;45.29;102122.91;4993950;28;20066;-91
2021/12/12 16:32:22;;;;;;;41.88;39.67;;;;;;;20.38;45.24;102122.63;5011661;28;20026;-90
2021/12/12 16:34:49;;;;;;;41.90;39.33;;;;;;;20.39;45.02;102126.22;5011255;28;20132;-89
2021/12/12 16:37:23;;;;;;;43.80;41.10;;;;;;;20.39;45.25;102126.22;5010592;28;20479;-88
2021/12/12 16:39:53;;;;;;;41.60;39.40;;;;;;;20.39;45.33;102120.72;4994569;28;20368;-85
2021/12/12 16:42:26;;;;;;;45.10;42.40;;;;;;;20.39;45.14;102131.72;5002091;28;20076;-89
2021/12/12 16:45:09;;;;;;;40.65;38.40;;;;;;;20.41;45.29;102134.97;4997712;28;20038;-87
2021/12/12 16:47:37;;;;;;;41.03;38.78;;;;;;;20.41;45.02;102134.97;5003929;28;20062;-89
2021/12/12 16:50:25;;;;;;;44.88;42.28;;;;;;;20.41;45.00;102138.56;4996442;28;20336;-84
2021/12/12 16:52:52;;;;;;;42.05;39.72;;;;;;;20.41;45.38;102144.06;5010926;28;20046;-87
2021/12/12 16:55:26;;;;;;;42.92;40.53;;;;;;;20.41;45.25;102141.31;5010676;28;20034;-87
2021/12/12 16:58:14;;;;;;;42.35;40.15;;;;;;;20.41;45.10;102138.56;5013097;28;20029;-88
2021/12/12 17:00:49;;;;;;;42.97;40.60;;;;;;;20.42;45.03;102142.13;5005290;28;20038;-86
2021/12/12 17:03:27;;;;;;;42.67;40.28;;;;;;;20.43;45.44;102138.28;4997210;28;20041;-85
2021/12/12 17:06:00;;;;;;;43.42;41.03;;;;;;;20.43;45.35;102143.75;5006176;28;20069;-86
2021/12/12 17:08:59;;;;;;;41.58;39.25;;;;;;;20.43;45.20;102147.31;5010632;28;20557;-86
2021/12/12 17:11:35;;;;;;;43.50;41.00;;;;;;;20.44;45.55;102145.44;4996938;28;20033;-86
2021/12/12 17:14:23;;;;;;;42.50;40.20;;;;;;;20.44;45.72;102142.69;5011153;28;20121;-86
2021/12/12 17:16:53;;;;;;;43.65;41.10;;;;;;;20.44;45.54;102148.16;4993844;28;20030;-87
2021/12/12 17:19:27;;;;;;;43.25;40.75;;;;;;;20.44;45.51;102157.22;4997166;28;20084;-87
2021/12/12 17:21:54;;;;;;;43.78;40.97;;;;;;;20.44;45.59;102153.66;5008944;28;20497;-86
2021/12/12 17:24:23;;;;;;;44.55;41.75;;;;;;;20.45;46.19;102147.88;4994101;28;20461;-87
2021/12/12 17:26:52;;;;;;;44.20;41.28;;;;;;;20.46;45.63;102163.25;5008887;28;20038;-86
2021/12/12 17:29:26;;;;;;;46.90;43.55;;;;;;;20.46;45.75;102155.03;4999292;28;20086;-86
2021/12/12 17:31:59;;;;;;;47.42;43.78;;;;;;;20.47;45.81;102153.91;5010853;28;20044;-85
2021/12/12 17:34:30;;;;;;;46.60;43.58;;;;;;;20.47;46.16;102158.59;5000022;28;20580;-87
2021/12/12 17:37:02;;;;;;;45.75;42.22;;;;;;;20.48;46.23;102162.97;5003594;28;20037;-86
2021/12/12 17:39:41;;;;;;;45.70;42.90;;;;;;;20.48;45.88;102162.97;4991622;28;20026;-86
2021/12/12 17:42:52;;;;;;;46.05;43.05;;;;;;;20.48;46.08;102166.53;5009270;28;20030;-83
2021/12/12 17:45:55;;;;;;;43.88;41.08;;;;;;;20.49;46.02;102168.19;5008891;28;20493;-86
2021/12/12 17:48:58;;;;;;;45.00;42.03;;;;;;;20.48;46.04;102169.28;5003752;28;20035;-85
2021/12/12 17:51:26;;;;;;;45.47;42.50;;;;;;;20.48;46.05;102171.22;5005965;28;20502;-90
2021/12/12 17:54:26;;;;;;;46.42;43.50;;;;;;;20.48;45.75;102171.22;5010815;28;20034;-88
2021/12/12 17:57:13;;;;;;;43.80;40.80;;;;;;;20.48;46.36;102179.44;4992596;28;20026;-88
2021/12/12 17:59:51;;;;;;;44.75;41.67;;;;;;;20.49;45.84;102181.09;5011621;28;20032;-89
2021/12/12 18:02:22;;;;;;;45.67;42.03;;;;;;;20.49;45.80;102183.84;4992850;28;20041;-89
2021/12/12 18:04:49;;;;;;;43.92;40.92;;;;;;;20.49;45.93;102183.84;4996398;28;20035;-88
2021/12/12 18:07:52;;;;;;;44.03;41.40;;;;;;;20.50;45.70;102182.75;4993776;28;20121;-87
2021/12/12 18:10:32;;;;;;;43.13;40.38;;;;;;;20.50;46.01;102180.81;4994362;28;20034;-89
2021/12/12 18:13:01;;;;;;;44.33;41.30;;;;;;;20.49;46.01;102181.91;5009853;28;20026;-88
2021/12/12 18:15:28;;;;;;;44.28;41.42;;;;;;;20.50;45.58;102188.22;5024440;28;20470;-86
2021/12/12 18:18:43;;;;;;;43.90;41.00;;;;;;;20.50;45.81;102189.03;5013416;28;20044;-86
2021/12/12 18:21:15;;;;;;;43.20;40.33;;;;;;;20.50;45.87;102188.22;5007041;28;20038;-85
2021/12/12 18:23:46;;;;;;;42.33;39.33;;;;;;;20.50;46.67;102194.53;5012403;28;20033;-87
2021/12/12 18:26:24;;;;;;;43.50;40.80;;;;;;;20.50;46.93;102191.78;5001678;28;20485;-86
2021/12/12 18:28:56;;;;;;;44.03;41.08;;;;;;;20.50;46.87;102194.53;5004944;28;20109;-88
2021/12/12 18:31:45;;;;;;;44.13;41.42;;;;;;;20.52;47.10;102197.03;4995275;28;20495;-86
2021/12/12 18:34:12;;;;;;;42.45;39.72;;;;;;;20.51;47.25;102203.59;5010191;28;20151;-84
2021/12/12 18:36:55;;;;;;;44.45;40.85;;;;;;;20.51;47.51;102198.09;5010431;28;20030;-87
2021/12/12 18:39:37;;;;;;;43.10;40.60;;;;;;;20.52;47.70;102205.25;4995832;28;20466;-86
2021/12/12 18:42:06;;;;;;;44.35;41.42;;;;;;;20.52;47.72;102202.50;5008653;28;20030;-86
2021/12/12 18:44:35;;;;;;;43.53;40.58;;;;;;;20.51;47.80;102198.09;5000680;28;20022;-86
2021/12/12 18:47:04;;;;;;;41.20;38.67;;;;;;;20.53;47.81;102206.88;4992181;28;20037;-86
2021/12/12 18:49:35;;;;;;;43.95;41.20;;;;;;;20.52;48.02;102197.84;4993656;28;20041;-86
2021/12/12 18:52:11;;;;;;;41.15;38.78;;;;;;;20.53;47.82;102199.47;5009519;28;20034;-86
2021/12/12 18:54:45;;;;;;;41.75;39.25;;;;;;;20.53;48.17;102204.16;5015208;28;20030;-86
2021/12/12 18:57:15;;;;;;;41.95;39.45;;;;;;;20.52;48.17;102217.06;5005214;28;20030;-85
2021/12/12 18:59:41;;;;;;;42.50;40.10;;;;;;;20.53;48.18;102215.94;5010941;28;20054;-86
2021/12/12 19:02:14;;;;;;;42.20;39.50;;;;;;;20.54;48.37;102216.78;5010473;28;20030;-87
2021/12/12 19:04:49;;;;;;;42.03;39.38;;;;;;;20.54;48.37;102216.78;4995531;28;20038;-86
2021/12/12 19:07:16;;;;;;;42.25;39.53;;;;;;;20.55;48.40;102228.63;4994549;28;20030;-84
2021/12/12 19:09:48;;;;;;;42.10;39.55;;;;;;;20.54;48.44;102225.03;4992213;28;20072;-85
2021/12/12 19:12:26;;;;;;;42.75;40.42;;;;;;;20.55;48.82;102223.13;5003174;28;20041;-83
2021/12/12 19:14:54;;;;;;;42.22;39.42;;;;;;;20.53;48.53;102232.41;5012345;28;20112;-84
2021/12/12 19:17:19;;;;;;;42.75;40.33;;;;;;;20.55;48.55;102236.84;5012514;28;20026;-84
2021/12/12 19:19:52;;;;;;;41.45;39.10;;;;;;;20.55;48.66;102237.66;5012252;28;20036;-87
2021/12/12 19:22:28;;;;;;;45.22;42.47;;;;;;;20.55;48.95;102243.16;5001381;28;20462;-84
2021/12/12 19:24:54;;;;;;;42.72;40.22;;;;;;;20.56;48.93;102252.22;5010259;28;20397;-85
2021/12/12 19:27:29;;;;;;;41.20;38.58;;;;;;;20.56;48.96;102253.03;5009659;28;20037;-85
2021/12/12 19:30:23;;;;;;;41.38;38.88;;;;;;;20.55;49.31;102254.13;5012308;28;20045;-85
2021/12/12 19:32:49;;;;;;;41.17;38.95;;;;;;;20.55;49.07;102254.13;5008328;28;20109;-85
2021/12/12 19:35:21;;;;;;;41.42;38.85;;;;;;;20.56;48.99;102252.22;5012473;28;20101;-83
2021/12/12 19:37:51;;;;;;;42.75;40.20;;;;;;;20.56;48.94;102253.03;5011813;28;20252;-84
2021/12/12 19:40:20;;;;;;;42.67;40.17;;;;;;;20.56;48.95;102250.28;5010619;28;20029;-83
2021/12/12 19:42:50;;;;;;;40.20;37.85;;;;;;;20.56;49.12;102243.97;5008987;28;20038;-84
2021/12/12 19:45:29;;;;;;;40.00;37.80;;;;;;;20.56;49.14;102246.72;5007569;28;20061;-82
2021/12/12 19:47:58;;;;;;;41.40;38.97;;;;;;;20.56;49.00;102247.53;5011496;28;20030;-84
2021/12/12 19:50:31;;;;;;;41.42;38.95;;;;;;;20.57;49.20;102234.66;5009993;28;20021;-84
2021/12/12 19:52:58;;;;;;;40.22;37.85;;;;;;;20.56;49.06;102246.72;4996662;28;20497;-83
2021/12/12 19:55:27;;;;;;;42.30;39.90;;;;;;;20.56;49.32;102244.78;5008246;28;20164;-83
2021/12/12 19:57:59;;;;;;;42.10;39.80;;;;;;;20.56;49.48;102250.28;5007483;28;20034;-84
2021/12/12 20:00:33;;;;;;;41.40;39.00;;;;;;;20.56;49.34;102253.03;5008529;28;20033;-83
2021/12/12 20:03:29;;;;;;;41.38;39.17;;;;;;;20.56;49.22;102260.44;4999071;28;20034;-83
2021/12/12 20:06:08;;;;;;;40.70;38.17;;;;;;;20.56;49.28;102247.53;5001237;28;20034;-83
2021/12/12 20:08:46;;;;;;;40.97;38.45;;;;;;;20.56;49.34;102250.28;5003486;28;20054;-83
2021/12/12 20:11:17;;;;;;;39.08;36.97;;;;;;;20.56;49.34;102246.72;5003775;28;20092;-83
2021/12/12 20:13:49;;;;;;;41.80;39.45;;;;;;;20.55;49.36;102254.13;5009439;28;20410;-83
2021/12/12 20:16:39;;;;;;;40.75;38.35;;;;;;;20.55;49.39;102251.41;5011103;28;20049;-83
2021/12/12 20:19:15;;;;;;;41.35;39.05;;;;;;;20.56;49.29;102249.47;5005819;28;20038;-83
2021/12/12 20:21:50;;;;;;;41.33;38.85;;;;;;;20.56;49.27;102255.78;5006961;28;20045;-83
2021/12/12 20:24:29;;;;;;;41.05;38.75;;;;;;;20.55;48.99;102251.41;4995106;28;20479;-83
2021/12/12 20:27:07;;;;;;;40.42;38.33;;;;;;;20.55;49.02;102256.88;5008780;28;20030;-83
2021/12/12 20:29:37;;;;;;;42.38;39.97;;;;;;;20.56;49.14;102260.44;5010064;28;20065;-84
2021/12/12 20:32:12;;;;;;;39.78;37.58;;;;;;;20.56;48.91;102260.44;5008368;28;20117;-84
2021/12/12 20:34:49;;;;;;;42.75;40.25;;;;;;;20.56;49.12;102264.00;5007652;28;20505;-84
2021/12/12 20:37:18;;;;;;;40.70;38.25;;;;;;;20.56;49.34;102254.97;5003160;28;20057;-83
2021/12/12 20:39:58;;;;;;;40.63;38.33;;;;;;;20.56;49.21;102263.19;4999628;28;20034;-83
2021/12/12 20:42:34;;;;;;;41.05;38.75;;;;;;;20.57;49.11;102264.88;4993334;28;20113;-84
2021/12/12 20:45:06;;;;;;;40.60;38.33;;;;;;;20.57;49.32;102259.38;5009343;28;20038;-86
2021/12/12 20:47:41;;;;;;;41.05;38.75;;;;;;;20.56;49.11;102264.00;4999072;28;20033;-85
2021/12/12 20:50:18;;;;;;;40.38;38.00;;;;;;;20.57;49.18;102270.34;5005878;28;20034;-84
2021/12/12 20:52:57;;;;;;;41.03;38.63;;;;;;;20.56;49.24;102269.50;5012084;28;20029;-84
2021/12/12 20:55:34;;;;;;;40.25;38.05;;;;;;;20.56;49.06;102269.50;5011290;28;20034;-84
2021/12/12 20:58:22;;;;;;;41.08;38.67;;;;;;;20.56;49.13;102277.75;4993318;28;20498;-83
2021/12/12 21:00:54;;;;;;;40.45;38.13;;;;;;;20.55;49.40;102278.84;4994531;28;20160;-81
2021/12/12 21:03:26;;;;;;;39.20;36.90;;;;;;;20.56;49.54;102280.47;5001779;28;20037;-79
2021/12/12 21:06:00;;;;;;;41.75;39.00;;;;;;;20.56;49.72;102272.25;5005989;28;20719;-81
2021/12/12 21:08:33;;;;;;;41.00;38.78;;;;;;;20.56;49.35;102271.44;5011755;28;20061;-82
2021/12/12 21:11:04;;;;;;;40.65;38.50;;;;;;;20.57;49.14;102281.34;5013505;28;20389;-85
2021/12/12 21:13:33;;;;;;;42.13;39.72;;;;;;;20.56;49.31;102280.47;5004620;28;20038;-84
2021/12/12 21:16:04;;;;;;;38.83;36.65;;;;;;;20.56;49.38;102280.47;5000746;28;20035;-87
2021/12/12 21:18:32;;;;;;;40.33;38.15;;;;;;;20.58;49.62;102283.78;4997317;28;20109;-90
2021/12/12 21:21:01;;;;;;;40.83;38.53;;;;;;;20.58;49.51;102278.28;4999831;28;20485;-84
2021/12/12 21:23:32;;;;;;;42.20;39.75;;;;;;;20.58;49.84;102283.78;5011511;28;20042;-82
2021/12/12 21:26:03;;;;;;;41.78;39.25;;;;;;;20.59;49.91;102288.19;5005279;28;20057;-82
2021/12/12 21:28:43;;;;;;;43.17;40.78;;;;;;;20.59;49.90;102282.72;5008913;28;20030;-82
2021/12/12 21:31:14;;;;;;;40.45;38.33;;;;;;;20.59;49.89;102288.19;5007942;28;20402;-82
2021/12/12 21:33:48;;;;;;;41.25;39.05;;;;;;;20.58;49.43;102278.28;5007659;28;20038;-82
2021/12/12 21:36:31;;;;;;;40.97;38.78;;;;;;;20.59;49.72;102287.34;5006281;28;20053;-83
2021/12/12 21:39:00;;;;;;;42.45;40.15;;;;;;;20.59;49.86;102293.69;5001657;28;20045;-82
2021/12/12 21:41:26;;;;;;;41.13;38.53;;;;;;;20.59;49.76;102290.09;5007941;28;20398;-81
2021/12/12 21:43:52;;;;;;;42.20;39.70;;;;;;;20.59;49.75;102292.84;4995203;28;20045;-83
2021/12/12 21:46:17;;;;;;;42.75;40.35;;;;;;;20.59;49.80;102290.94;5009264;28;20034;-82
2021/12/12 21:48:57;;;;;;;41.30;39.00;;;;;;;20.59;49.93;102288.19;5001518;28;20529;-83
2021/12/12 21:51:30;;;;;;;41.17;39.00;;;;;;;20.60;49.90;102294.50;5008050;28;20040;-82
2021/12/12 21:53:58;;;;;;;41.83;39.58;;;;;;;20.59;49.55;102290.94;5002556;28;20125;-83
2021/12/12 21:56:25;;;;;;;38.90;36.67;;;;;;;20.59;49.38;102293.69;5011061;28;20093;-83
2021/12/12 21:59:00;;;;;;;41.05;38.65;;;;;;;20.60;49.77;102294.50;4984369;28;20034;-83
2021/12/12 22:01:40;;;;;;;42.22;40.03;;;;;;;20.60;49.88;102289.03;4992767;28;20117;-81
2021/12/12 22:04:08;;;;;;;44.70;42.38;;;;;;;20.60;49.71;102289.84;5002640;28;20486;-82
2021/12/12 22:06:42;;;;;;;41.10;38.70;;;;;;;20.60;49.87;102298.06;4997712;28;20030;-82
2021/12/12 22:09:24;;;;;;;41.40;39.28;;;;;;;20.59;49.66;102296.44;5002198;28;20375;-82
2021/12/12 22:11:57;;;;;;;40.83;38.55;;;;;;;20.59;49.79;102293.69;4996811;28;20033;-83
2021/12/12 22:14:54;;;;;;;42.60;40.40;;;;;;;20.59;49.79;102303.81;5005416;28;20044;-83
2021/12/12 22:17:27;;;;;;;40.33;38.13;;;;;;;20.59;49.43;102301.94;5008782;28;20052;-83
2021/12/12 22:20:24;;;;;;;40.40;38.20;;;;;;;20.59;49.46;102303.81;4997688;28;20022;-83
2021/12/12 22:22:56;;;;;;;39.55;37.35;;;;;;;20.59;49.56;102301.94;5007568;28;20074;-83
2021/12/12 22:25:26;;;;;;;40.33;38.28;;;;;;;20.59;49.58;102312.06;5004347;28;20064;-82
2021/12/12 22:27:55;;;;;;;39.80;37.80;;;;;;;20.60;49.49;102316.47;5004474;28;20041;-83
2021/12/12 22:30:25;;;;;;;41.58;39.47;;;;;;;20.59;49.37;102314.81;5012375;28;20040;-83
2021/12/12 22:32:55;;;;;;;41.83;39.53;;;;;;;20.58;49.45;102313.97;5010088;28;20029;-84
2021/12/12 22:35:29;;;;;;;40.58;38.42;;;;;;;20.59;49.24;102323.03;5011422;28;20026;-83
2021/12/12 22:38:00;;;;;;;40.67;38.55;;;;;;;20.59;49.51;102321.16;5003294;28;20029;-85
2021/12/12 22:40:37;;;;;;;40.70;38.50;;;;;;;20.59;49.86;102326.63;5001675;28;20084;-85
2021/12/12 22:43:05;;;;;;;40.75;38.65;;;;;;;20.58;49.56;102319.47;5002933;28;20034;-85
2021/12/12 22:45:34;;;;;;;42.58;40.20;;;;;;;20.59;49.66;102323.03;5012528;28;20497;-85
2021/12/12 22:48:13;;;;;;;41.92;39.55;;;;;;;20.59;49.71;102323.03;5012722;28;20038;-87
2021/12/12 22:50:53;;;;;;;40.33;37.83;;;;;;;20.59;49.56;102323.03;5014231;28;20092;-83
2021/12/12 22:53:39;;;;;;;40.92;38.50;;;;;;;20.59;49.53;102326.63;5012766;28;20026;-87
2021/12/12 22:56:13;;;;;;;41.25;38.90;;;;;;;20.59;49.62;102334.03;5001238;28;20117;-85
2021/12/12 22:59:02;;;;;;;41.83;39.38;;;;;;;20.59;49.53;102323.03;5008618;28;20037;-87
2021/12/12 23:01:45;;;;;;;41.65;38.83;;;;;;;20.58;49.77;102324.97;5012942;28;20101;-88
2021/12/12 23:04:16;;;;;;;40.40;38.30;;;;;;;20.58;49.64;102324.97;5011461;28;20061;-86
2021/12/12 23:07:05;;;;;;;40.97;38.75;;;;;;;20.59;49.80;102329.38;5012335;28;20030;-87
2021/12/12 23:10:14;;;;;;;39.75;37.65;;;;;;;20.58;49.52;102324.97;5011041;28;20140;-87
2021/12/12 23:12:47;;;;;;;40.45;38.15;;;;;;;20.59;49.63;102325.78;4999414;28;20088;-87
2021/12/12 23:15:15;;;;;;;39.80;37.70;;;;;;;20.59;49.63;102329.38;5010982;28;20095;-87
2021/12/12 23:17:44;;;;;;;42.33;39.95;;;;;;;20.59;49.22;102329.38;4997762;28;20026;-87
2021/12/12 23:20:30;;;;;;;;;;;;;;;20.57;49.38;102322.50;5007231;28;20120;-87
2021/12/12 23:23:03;;;;;;;39.22;37.05;;;;;;;20.58;49.29;102329.63;5017005;28;20332;-87
2021/12/12 23:25:31;;;;;;;39.80;37.58;;;;;;;20.57;49.60;102325.25;5005291;28;20398;-87
2021/12/12 23:30:42;;;;;;;39.65;37.50;;;;;;;20.58;49.37;102333.19;5014109;28;20068;-87
2021/12/12 23:33:13;;;;;;;39.65;37.45;;;;;;;20.58;49.23;102330.47;4997612;28;20083;-87
2021/12/12 23:35:46;;;;;;;40.03;37.60;;;;;;;20.58;49.43;102319.47;5002167;28;20058;-87
2021/12/12 23:38:18;;;;;;;39.50;37.30;;;;;;;20.58;49.32;102330.47;5010974;28;20104;-87
2021/12/12 23:40:46;;;;;;;39.05;36.95;;;;;;;20.59;49.52;102336.75;5008195;28;20040;-88
2021/12/12 23:43:22;;;;;;;38.30;36.30;;;;;;;20.58;49.53;102335.94;5009736;28;20030;-86
2021/12/12 23:46:21;;;;;;;38.08;35.92;;;;;;;20.58;49.31;102324.16;5010973;28;20433;-86
2021/12/12 23:48:49;;;;;;;39.20;37.15;;;;;;;20.58;49.07;102332.38;5004465;28;20037;-86
2021/12/12 23:51:17;;;;;;;38.97;36.88;;;;;;;20.58;49.06;102332.38;5010100;28;20171;-86
2021/12/12 23:53:53;;;;;;;38.88;36.78;;;;;;;20.57;49.47;102334.31;5007531;28;20029;-87
2021/12/12 23:56:25;;;;;;;38.30;36.30;;;;;;;20.59;49.30;102342.25;5012227;28;20528;-87
2021/12/12 23:58:54;;;;;;;39.90;37.70;;;;;;;20.58;49.39;102330.47;5010830;28;20038;-87
